Terminal Aerodrome Forecast
Issued by NWS

Home | Current Version | Previous Version | Text Only | Print | Product List | Glossary On
Versions: 1 2 3 4 5 6 7 8 9 10 11 12 13 14 15 16 17 18 19 20 21 22 23 24
000
FTUS42 KMLB 221131
TAFTIX
TAF
KTIX 221131Z 2212/2312 10008KT P6SM FEW020 BKN150
     FM221500 08011KT P6SM VCSH SCT025 BKN150
     FM230000 09012KT P6SM SCT025 BKN100
     FM230500 08005KT P6SM FEW025 SCT150=

USA.gov is the U.S. government's official web portal to all federal, state and local government web resources and services.